Time;durP1;ratioP1;P1;durP2;ratioP2;P2;SDS_P1;SDS_P2;PMS_P1;PMS_P2;Temp;Humidity;BMP_temperature;BMP_pressure;BME280_temperature;BME280_humidity;BME280_pressure;Samples;Min_cycle;Max_cycle;Signal;HPM_P1;HPM_P2
2023/04/18 00:01:00;;;;;;;18.45;13.65;;;;;;;7.39;75.29;102534.94;4884128;29;20049;-70
2023/04/18 00:03:28;;;;;;;19.95;12.85;;;;;;;7.37;74.57;102544.47;4871145;29;20043;-70
2023/04/18 00:05:54;;;;;;;17.15;13.00;;;;;;;7.31;75.62;102540.78;4885587;29;20063;-71
2023/04/18 00:08:19;;;;;;;18.65;12.63;;;;;;;7.27;75.30;102532.88;4904832;29;20477;-75
2023/04/18 00:10:46;;;;;;;18.23;12.55;;;;;;;7.24;75.57;102542.31;4882341;29;20045;-75
2023/04/18 00:13:12;;;;;;;19.05;13.73;;;;;;;7.21;76.17;102534.41;4867238;29;20037;-75
2023/04/18 00:15:37;;;;;;;18.40;13.35;;;;;;;7.16;76.62;102538.63;4879910;29;20395;-75
2023/04/18 00:18:04;;;;;;;19.40;14.00;;;;;;;7.13;76.07;102534.19;4877789;29;20033;-75
2023/04/18 00:20:30;;;;;;;18.38;14.13;;;;;;;7.07;76.61;102532.28;4855979;29;20104;-75
2023/04/18 00:22:56;;;;;;;18.75;14.10;;;;;;;7.04;77.34;102531.28;4870949;29;20063;-75
2023/04/18 00:25:22;;;;;;;20.17;14.38;;;;;;;7.04;76.65;102531.28;4880636;29;20076;-74
2023/04/18 00:27:47;;;;;;;17.45;13.63;;;;;;;7.02;76.60;102530.38;4871537;29;20108;-75
2023/04/18 00:30:13;;;;;;;21.58;13.68;;;;;;;6.98;75.24;102525.91;4889019;29;20036;-75
2023/04/18 00:32:39;;;;;;;18.15;12.90;;;;;;;6.98;73.82;102533.72;4886345;29;20040;-75
2023/04/18 00:35:05;;;;;;;17.55;12.70;;;;;;;6.96;73.44;102530.19;4857480;29;20049;-71
2023/04/18 00:37:30;;;;;;;17.42;12.35;;;;;;;6.93;73.34;102529.25;4887830;29;20036;-70
2023/04/18 00:39:57;;;;;;;17.70;12.90;;;;;;;6.90;73.21;102529.16;4883933;29;20045;-70
2023/04/18 00:42:24;;;;;;;18.63;12.98;;;;;;;6.87;72.58;102526.47;4888089;29;20044;-71
2023/04/18 00:44:50;;;;;;;16.65;12.30;;;;;;;6.87;71.40;102534.28;4852716;29;20048;-70
2023/04/18 00:47:18;;;;;;;18.35;11.93;;;;;;;6.87;71.58;102533.41;4885307;29;20041;-70
2023/04/18 00:49:44;;;;;;;19.45;12.75;;;;;;;6.83;70.68;102522.00;4902230;29;20045;-71
2023/04/18 00:52:14;;;;;;;19.80;13.15;;;;;;;6.79;70.84;102527.94;4901500;29;20043;-71
2023/04/18 00:54:40;;;;;;;18.85;12.77;;;;;;;6.79;70.49;102527.06;4896697;29;20071;-75
2023/04/18 00:57:06;;;;;;;15.48;12.30;;;;;;;6.76;70.49;102527.84;4881748;29;20036;-74
2023/04/18 00:59:35;;;;;;;19.15;12.02;;;;;;;6.72;70.58;102521.69;4896911;29;20047;-75
2023/04/18 01:02:02;;;;;;;19.45;12.35;;;;;;;6.70;70.04;102530.28;4897823;29;20115;-75
2023/04/18 01:04:28;;;;;;;16.92;12.75;;;;;;;6.62;70.66;102524.81;4887216;29;20048;-75
2023/04/18 01:06:53;;;;;;;18.15;12.65;;;;;;;6.56;71.58;102530.69;4879576;29;20036;-74
2023/04/18 01:09:23;;;;;;;18.17;12.43;;;;;;;6.49;70.94;102531.34;4851784;29;20055;-75
2023/04/18 01:11:48;;;;;;;15.60;11.73;;;;;;;6.45;70.52;102528.59;4885707;29;20199;-75
2023/04/18 01:14:13;;;;;;;16.13;11.82;;;;;;;6.44;71.19;102534.63;4867018;29;20485;-75
2023/04/18 01:16:40;;;;;;;19.35;12.20;;;;;;;6.37;70.79;102528.34;4886120;29;20469;-75
2023/04/18 01:19:05;;;;;;;18.23;12.18;;;;;;;6.32;70.98;102540.31;4885112;29;20493;-75
2023/04/18 01:21:35;;;;;;;19.00;12.25;;;;;;;6.24;70.93;102530.53;4869569;29;20048;-75
2023/04/18 01:24:11;;;;;;;21.15;12.15;;;;;;;6.18;71.90;102524.28;4872185;29;20048;-75
2023/04/18 01:26:37;;;;;;;15.75;12.63;;;;;;;6.12;71.20;102532.75;4871547;29;20033;-75
2023/04/18 01:29:02;;;;;;;15.32;12.10;;;;;;;6.07;71.65;102529.97;4908974;29;20043;-75
2023/04/18 01:31:28;;;;;;;17.67;12.32;;;;;;;6.05;71.65;102521.25;4895383;29;20493;-75
2023/04/18 01:33:54;;;;;;;15.48;12.27;;;;;;;6.03;71.52;102522.00;4881019;29;20590;-75
2023/04/18 01:36:19;;;;;;;17.38;12.45;;;;;;;5.94;72.11;102524.28;4857151;29;20541;-75
2023/04/18 01:38:44;;;;;;;17.35;12.40;;;;;;;5.90;72.22;102516.38;4854355;29;20036;-75
2023/04/18 01:41:13;;;;;;;18.75;12.75;;;;;;;5.87;72.26;102520.56;4871804;29;20115;-74
2023/04/18 01:43:39;;;;;;;19.48;13.10;;;;;;;5.84;72.28;102516.16;4869419;29;20036;-75
2023/04/18 01:46:23;;;;;;;17.00;13.00;;;;;;;5.84;72.08;102520.47;4865432;29;20036;-75
2023/04/18 01:48:49;;;;;;;15.68;12.52;;;;;;;5.79;72.18;102517.72;4896496;29;20040;-75
2023/04/18 01:51:14;;;;;;;16.50;12.35;;;;;;;5.77;72.89;102515.88;4868016;29;20051;-74
2023/04/18 01:53:41;;;;;;;15.57;12.10;;;;;;;5.72;72.19;102513.13;4879674;29;20029;-75
2023/04/18 01:56:06;;;;;;;16.83;12.75;;;;;;;5.67;73.09;102507.75;4892709;29;20048;-75
2023/04/18 01:58:31;;;;;;;15.65;12.40;;;;;;;5.63;72.80;102505.00;4883029;29;20798;-75
2023/04/18 02:00:58;;;;;;;17.73;12.80;;;;;;;5.62;73.24;102513.66;4884150;29;20048;-75
2023/04/18 02:03:24;;;;;;;15.82;12.10;;;;;;;5.61;73.09;102511.88;4868057;29;20064;-75
2023/04/18 02:05:50;;;;;;;16.52;12.32;;;;;;;5.57;72.82;102504.78;4884630;29;20040;-74
2023/04/18 02:08:16;;;;;;;16.38;12.25;;;;;;;5.55;73.18;102507.34;4881492;29;20048;-76
2023/04/18 02:10:41;;;;;;;16.38;12.65;;;;;;;5.49;73.69;102509.72;4879401;29;20511;-75
2023/04/18 02:13:07;;;;;;;16.58;12.55;;;;;;;5.48;73.12;102500.13;4881507;29;20053;-75
2023/04/18 02:15:33;;;;;;;16.95;12.50;;;;;;;5.44;73.61;102506.94;4881173;29;20051;-75
2023/04/18 02:17:59;;;;;;;15.32;11.98;;;;;;;5.39;73.37;102516.28;4868562;29;20458;-70
2023/04/18 02:20:27;;;;;;;16.17;11.70;;;;;;;5.36;73.76;102504.06;4862743;29;20052;-70
2023/04/18 02:22:53;;;;;;;15.98;12.65;;;;;;;5.34;73.69;102502.22;4890067;29;20498;-71
2023/04/18 02:25:22;;;;;;;16.23;12.75;;;;;;;5.29;73.70;102501.19;4904426;29;20048;-71
2023/04/18 02:27:47;;;;;;;17.65;12.82;;;;;;;5.28;73.28;102496.81;4893086;29;20044;-71
2023/04/18 02:30:13;;;;;;;18.98;13.25;;;;;;;5.24;74.01;102497.53;4876919;29;20060;-70
2023/04/18 02:32:38;;;;;;;17.77;12.98;;;;;;;5.20;73.90;102497.41;4894007;29;20124;-71
2023/04/18 02:35:04;;;;;;;17.52;13.38;;;;;;;5.17;74.00;102494.72;4866604;29;20045;-71
2023/04/18 02:37:30;;;;;;;19.50;13.48;;;;;;;5.16;73.85;102494.66;4849379;29;20056;-71
2023/04/18 02:39:56;;;;;;;17.33;13.07;;;;;;;5.13;73.94;102487.63;4876716;29;20048;-71
2023/04/18 02:42:22;;;;;;;17.02;12.75;;;;;;;5.11;73.81;102491.88;4886293;29;20096;-71
2023/04/18 02:44:47;;;;;;;18.80;13.43;;;;;;;5.08;74.15;102494.34;4868526;29;20052;-71
2023/04/18 02:47:14;;;;;;;17.65;14.10;;;;;;;5.05;74.28;102494.25;4891727;29;20036;-71
2023/04/18 02:49:40;;;;;;;20.67;13.32;;;;;;;4.97;74.91;102496.56;4870111;29;20045;-71
2023/04/18 02:52:05;;;;;;;18.38;13.05;;;;;;;4.95;74.45;102492.13;4880116;29;20037;-71
2023/04/18 02:54:31;;;;;;;18.58;12.60;;;;;;;4.91;75.12;102490.25;4875296;29;20052;-70
2023/04/18 02:56:56;;;;;;;19.50;14.07;;;;;;;4.89;75.24;102492.78;4879154;29;20040;-71
2023/04/18 02:59:23;;;;;;;18.23;12.88;;;;;;;4.88;75.03;102495.31;4895719;29;20048;-71
2023/04/18 03:01:48;;;;;;;16.80;13.10;;;;;;;4.83;75.17;102496.03;4881043;29;20048;-71
2023/04/18 03:04:14;;;;;;;24.00;14.15;;;;;;;4.82;75.37;102491.66;4852238;29;20104;-71
2023/04/18 03:06:40;;;;;;;18.45;13.23;;;;;;;4.76;75.31;102485.34;4888014;29;20051;-71
2023/04/18 03:09:06;;;;;;;17.77;12.75;;;;;;;4.76;75.45;102493.16;4880159;29;20048;-71
2023/04/18 03:11:31;;;;;;;19.92;14.02;;;;;;;4.74;75.28;102487.00;4863452;29;20502;-70
2023/04/18 03:13:56;;;;;;;17.65;13.80;;;;;;;4.72;75.93;102489.53;4883776;29;20048;-70
2023/04/18 03:16:22;;;;;;;18.33;13.15;;;;;;;4.65;75.63;102488.41;4882336;29;20516;-71
2023/04/18 03:18:47;;;;;;;16.05;12.77;;;;;;;4.64;76.02;102483.16;4877291;29;20072;-70
2023/04/18 03:21:13;;;;;;;20.45;14.32;;;;;;;4.60;75.90;102486.47;4871498;29;20048;-71
2023/04/18 03:23:39;;;;;;;19.10;13.90;;;;;;;4.55;76.42;102488.88;4884395;29;20075;-71
2023/04/18 03:26:06;;;;;;;20.38;13.35;;;;;;;4.56;76.39;102487.16;5319258;23;20071;-69
2023/04/18 03:28:31;;;;;;;17.70;13.63;;;;;;;4.54;76.65;102494.91;4940887;29;20051;-73
2023/04/18 03:30:58;;;;;;;16.90;13.85;;;;;;;4.49;76.58;102492.09;5415210;23;21445;-72
2023/04/18 03:54:36;;;;;;;16.60;13.20;;;;;;;4.27;77.35;102503.34;5488422;23;20030;-72
2023/04/18 04:32:11;;;;;;;17.10;13.27;;;;;;;3.95;78.51;102512.38;4933068;29;20043;-75
2023/04/18 04:34:37;;;;;;;19.17;14.05;;;;;;;3.94;78.04;102513.22;4920781;29;20412;-75
2023/04/18 04:37:02;;;;;;;16.75;12.82;;;;;;;3.92;78.73;102514.84;4899031;29;20043;-75
2023/04/18 04:39:28;;;;;;;16.80;12.70;;;;;;;3.92;78.73;102514.84;4920560;29;20406;-75
2023/04/18 04:41:54;;;;;;;17.02;12.65;;;;;;;3.91;78.23;102515.69;4904244;29;20044;-75
2023/04/18 04:44:21;;;;;;;16.27;12.52;;;;;;;3.89;78.31;102514.72;4899988;29;20421;-75
2023/04/18 04:46:46;;;;;;;15.60;12.50;;;;;;;3.87;79.06;102508.59;4884418;29;20040;-75
2023/04/18 04:49:12;;;;;;;17.30;12.50;;;;;;;3.84;78.32;102517.13;4920395;29;20111;-75
2023/04/18 04:51:38;;;;;;;15.70;12.23;;;;;;;3.81;78.23;102515.28;4924372;29;20511;-75
2023/04/18 04:54:05;;;;;;;18.85;12.13;;;;;;;3.81;78.57;102510.09;4886535;29;20065;-75
2023/04/18 04:56:31;;;;;;;16.33;12.65;;;;;;;3.81;78.94;102520.47;4899255;29;20058;-75
2023/04/18 04:58:59;;;;;;;17.40;13.23;;;;;;;3.81;78.76;102520.47;4931316;29;20046;-75
2023/04/18 05:01:25;;;;;;;15.80;12.43;;;;;;;3.78;78.69;102525.50;4902964;29;20504;-75
2023/04/18 05:03:51;;;;;;;18.63;12.68;;;;;;;3.77;78.74;102521.13;4918346;29;20042;-75
2023/04/18 05:06:19;;;;;;;17.35;12.95;;;;;;;3.73;78.97;102516.63;4900600;29;20052;-75
2023/04/18 05:08:46;;;;;;;19.15;13.23;;;;;;;3.74;78.44;102518.41;4897730;29;20100;-75
2023/04/18 05:11:12;;;;;;;16.77;13.00;;;;;;;3.72;78.77;102522.66;4899183;29;20043;-75
2023/04/18 05:13:37;;;;;;;18.38;12.10;;;;;;;3.76;78.68;102528.84;4916791;29;20182;-75
2023/04/18 05:16:05;;;;;;;20.08;13.75;;;;;;;3.73;78.87;102521.81;4907705;29;20558;-75
2023/04/18 05:18:31;;;;;;;18.48;12.60;;;;;;;3.74;78.55;102522.72;4898736;29;20282;-75
2023/04/18 05:20:56;;;;;;;18.65;13.18;;;;;;;3.74;79.12;102526.19;4889587;29;20086;-75
2023/04/18 05:23:21;;;;;;;17.55;12.75;;;;;;;3.76;78.74;102521.94;4903590;29;20051;-75
2023/04/18 05:25:47;;;;;;;19.27;13.95;;;;;;;3.83;79.25;102530.00;4916865;29;20428;-75
2023/04/18 05:28:12;;;;;;;17.80;13.10;;;;;;;3.88;78.73;102533.69;4890722;29;20376;-75
2023/04/18 05:30:38;;;;;;;17.83;12.55;;;;;;;3.96;78.68;102534.91;4886657;29;20070;-75
2023/04/18 05:33:04;;;;;;;19.38;13.63;;;;;;;4.00;78.54;102536.81;4902833;29;20404;-75
2023/04/18 05:35:30;;;;;;;17.77;13.45;;;;;;;4.07;78.58;102537.97;4884674;29;20050;-75
2023/04/18 05:37:57;;;;;;;16.60;12.82;;;;;;;4.11;78.93;102540.75;4894930;29;20349;-75
2023/04/18 05:40:22;;;;;;;15.85;12.70;;;;;;;4.13;78.48;102536.50;4915374;29;20047;-75
2023/04/18 05:42:48;;;;;;;17.23;12.88;;;;;;;4.19;78.77;102542.78;4900206;29;20484;-75
2023/04/18 05:45:13;;;;;;;18.35;13.07;;;;;;;4.25;78.71;102551.72;4915377;29;20131;-75
2023/04/18 05:47:39;;;;;;;18.92;13.10;;;;;;;4.28;78.37;102541.47;4902732;29;20054;-75
2023/04/18 05:50:05;;;;;;;17.33;12.93;;;;;;;4.34;78.81;102546.88;4899724;29;20043;-75
2023/04/18 05:52:31;;;;;;;17.17;13.35;;;;;;;4.40;78.89;102548.84;4907840;29;20568;-76
2023/04/18 05:54:56;;;;;;;18.00;13.00;;;;;;;4.48;78.46;102551.75;4921145;29;20063;-75
2023/04/18 05:57:22;;;;;;;17.92;13.40;;;;;;;4.57;78.91;102557.34;4892956;29;20094;-75
2023/04/18 05:59:47;;;;;;;19.05;12.85;;;;;;;4.64;78.92;102558.44;4893840;29;20028;-75
2023/04/18 06:02:13;;;;;;;17.95;13.32;;;;;;;4.73;78.64;102563.16;4891153;29;20395;-75
2023/04/18 06:04:42;;;;;;;17.20;14.15;;;;;;;4.88;79.21;102558.53;4890954;29;20051;-75
2023/04/18 06:07:08;;;;;;;18.17;13.20;;;;;;;5.02;78.92;102556.50;4898823;29;20400;-75
2023/04/18 06:09:34;;;;;;;17.58;13.15;;;;;;;5.16;78.25;102555.31;4899432;29;20481;-75
2023/04/18 06:12:00;;;;;;;17.13;13.35;;;;;;;5.26;78.33;102563.44;4890363;29;20138;-75
2023/04/18 06:14:26;;;;;;;16.20;13.18;;;;;;;5.36;76.42;102561.25;4894754;29;20028;-75
2023/04/18 06:16:51;;;;;;;21.60;13.23;;;;;;;5.43;77.77;102564.97;4903849;29;20514;-75
2023/04/18 06:19:17;;;;;;;18.52;13.32;;;;;;;5.47;77.32;102564.25;4888803;29;20054;-76
2023/04/18 06:21:42;;;;;;;18.88;12.60;;;;;;;5.51;77.12;102558.31;4893459;29;20032;-75
2023/04/18 06:24:08;;;;;;;18.90;12.65;;;;;;;5.58;77.08;102564.66;4900556;29;20037;-75
2023/04/18 06:26:34;;;;;;;18.63;12.98;;;;;;;5.65;76.64;102560.56;4889403;29;20043;-75
2023/04/18 06:28:59;;;;;;;15.55;11.98;;;;;;;5.75;76.10;102573.06;4914679;29;20039;-77
2023/04/18 06:31:25;;;;;;;19.70;12.38;;;;;;;5.86;75.41;102574.34;4916169;29;20516;-75
2023/04/18 06:33:50;;;;;;;18.05;12.63;;;;;;;6.07;76.02;102570.75;4896215;29;20039;-75
2023/04/18 06:36:16;;;;;;;19.15;13.20;;;;;;;6.20;76.83;102572.06;4906087;29;20031;-75
2023/04/18 06:38:41;;;;;;;22.55;12.82;;;;;;;6.31;75.52;102580.25;4913480;29;20066;-71
2023/04/18 06:41:07;;;;;;;17.27;12.98;;;;;;;6.60;75.00;102573.38;4890566;29;20044;-71
2023/04/18 06:43:34;;;;;;;16.63;12.75;;;;;;;6.93;75.15;102565.75;4896086;29;20488;-71
2023/04/18 06:46:00;;;;;;;18.80;12.95;;;;;;;7.14;74.60;102572.47;4911216;29;20040;-71
2023/04/18 06:48:25;;;;;;;15.70;12.23;;;;;;;7.25;71.99;102577.97;4904625;29;20488;-71
2023/04/18 06:50:51;;;;;;;15.80;12.10;;;;;;;7.45;72.22;102574.22;4907635;29;20135;-71
2023/04/18 06:53:16;;;;;;;16.35;12.20;;;;;;;7.59;71.51;102577.25;4882183;29;20040;-71
2023/04/18 06:55:42;;;;;;;13.95;11.48;;;;;;;7.52;69.80;102592.69;4884782;29;20053;-72
2023/04/18 06:58:08;;;;;;;14.27;10.98;;;;;;;7.38;71.05;102581.84;4903732;29;20138;-71
2023/04/18 07:00:34;;;;;;;16.38;11.18;;;;;;;7.28;70.38;102597.22;4900873;29;20050;-71
2023/04/18 07:03:01;;;;;;;16.48;11.20;;;;;;;7.18;71.25;102595.16;4906942;29;20035;-71
2023/04/18 07:05:27;;;;;;;20.50;11.30;;;;;;;7.11;71.36;102593.19;4903055;29;20055;-70
2023/04/18 07:07:53;;;;;;;14.52;10.82;;;;;;;7.05;72.69;102583.50;4929187;29;20051;-71
2023/04/18 07:10:18;;;;;;;16.88;11.93;;;;;;;7.02;73.22;102585.97;4900954;29;20036;-75
2023/04/18 07:12:43;;;;;;;15.73;11.27;;;;;;;7.02;72.78;102593.81;4899598;29;20040;-75
2023/04/18 07:15:09;;;;;;;20.27;11.00;;;;;;;6.98;72.59;102591.94;4891366;29;20031;-75
2023/04/18 07:17:35;;;;;;;14.20;10.75;;;;;;;7.02;72.81;102592.94;4899009;29;20401;-75
2023/04/18 07:20:01;;;;;;;18.00;11.88;;;;;;;6.94;73.97;102590.09;4886376;29;20119;-71
2023/04/18 07:22:27;;;;;;;13.88;11.65;;;;;;;6.93;73.24;102597.00;4885286;29;20130;-71
2023/04/18 07:24:55;;;;;;;15.88;11.55;;;;;;;6.89;74.41;102596.88;4889398;29;20088;-70
2023/04/18 07:27:22;;;;;;;15.52;11.35;;;;;;;6.87;73.35;102596.81;4883936;29;20044;-71
2023/04/18 07:29:48;;;;;;;14.95;11.45;;;;;;;6.87;73.67;102594.22;4889376;29;20039;-71
2023/04/18 07:32:14;;;;;;;15.05;10.82;;;;;;;6.87;73.57;102601.16;4904364;29;20059;-71
2023/04/18 07:34:43;;;;;;;15.55;10.80;;;;;;;6.89;73.87;102592.53;4909102;29;20032;-71
2023/04/18 07:37:09;;;;;;;16.50;10.77;;;;;;;6.93;74.11;102597.00;4907355;29;20063;-76
2023/04/18 07:39:35;;;;;;;13.77;10.63;;;;;;;6.99;74.13;102601.53;4905594;29;20059;-75
2023/04/18 07:42:02;;;;;;;15.18;10.43;;;;;;;7.07;75.31;102601.78;4901052;29;20043;-75
2023/04/18 07:44:27;;;;;;;15.38;10.63;;;;;;;7.17;74.41;102597.72;4917469;29;20091;-75
2023/04/18 07:46:53;;;;;;;13.45;10.98;;;;;;;7.25;74.03;102607.53;4888765;29;20445;-76
2023/04/18 07:49:19;;;;;;;12.43;9.95;;;;;;;7.28;73.75;102602.44;4904206;29;20405;-75
2023/04/18 07:51:45;;;;;;;14.82;10.40;;;;;;;7.42;74.33;102610.66;4901393;29;20040;-75
2023/04/18 07:54:10;;;;;;;14.15;9.80;;;;;;;7.44;73.53;102609.00;4902785;29;20095;-75
2023/04/18 07:56:35;;;;;;;14.43;10.50;;;;;;;7.50;73.56;102610.00;4897987;29;20041;-75
2023/04/18 07:59:01;;;;;;;15.63;11.02;;;;;;;7.52;73.65;102617.03;4907737;29;20408;-76
2023/04/18 08:01:26;;;;;;;12.30;10.68;;;;;;;7.53;72.63;102617.91;4902502;29;20044;-76
2023/04/18 08:03:53;;;;;;;14.05;10.68;;;;;;;7.61;75.69;102605.97;4917619;29;20043;-76
2023/04/18 08:06:20;;;;;;;15.27;11.10;;;;;;;7.68;74.01;102618.38;4878611;29;20107;-76
2023/04/18 08:08:46;;;;;;;14.18;10.68;;;;;;;7.70;74.64;102621.94;4912220;29;20047;-75
2023/04/18 08:11:12;;;;;;;12.93;10.48;;;;;;;7.77;74.11;102622.97;4911927;29;20050;-75
2023/04/18 08:13:37;;;;;;;14.13;10.10;;;;;;;7.75;73.66;102622.91;4887488;29;20044;-75
2023/04/18 08:16:03;;;;;;;14.27;10.32;;;;;;;7.70;72.42;102621.03;4901927;29;20032;-76
2023/04/18 08:18:28;;;;;;;12.85;10.30;;;;;;;7.70;73.16;102615.81;4887081;29;20040;-76
2023/04/18 08:20:55;;;;;;;15.70;10.73;;;;;;;7.67;73.58;102624.44;4889011;29;20040;-76
2023/04/18 08:23:20;;;;;;;12.43;10.18;;;;;;;7.69;74.52;102606.22;4890323;29;20035;-75
2023/04/18 08:25:46;;;;;;;13.57;10.35;;;;;;;7.75;73.63;102615.09;4889304;29;20039;-76
2023/04/18 08:28:12;;;;;;;15.10;10.63;;;;;;;7.80;74.27;102621.34;4890290;29;20133;-76
2023/04/18 08:30:37;;;;;;;13.07;10.63;;;;;;;7.90;74.15;102614.66;4906462;29;20039;-75
2023/04/18 08:33:03;;;;;;;15.85;11.00;;;;;;;7.99;73.53;102627.06;4911694;29;20054;-75
2023/04/18 08:35:28;;;;;;;14.48;10.32;;;;;;;8.07;72.98;102630.75;4900141;29;20048;-71
2023/04/18 08:37:54;;;;;;;12.05;10.15;;;;;;;8.19;72.59;102619.78;4900738;29;20046;-72
2023/04/18 08:40:20;;;;;;;14.85;10.05;;;;;;;8.44;72.16;102613.50;4887479;29;20047;-75
2023/04/18 08:42:46;;;;;;;13.95;11.50;;;;;;;9.00;74.19;102604.38;4935072;29;20066;-75
2023/04/18 08:45:15;;;;;;;14.57;12.57;;;;;;;9.75;73.35;102612.94;4883182;29;20051;-75
2023/04/18 08:47:41;;;;;;;14.10;10.40;;;;;;;10.13;69.62;102612.81;4896263;29;20036;-76
2023/04/18 08:50:09;;;;;;;12.07;9.98;;;;;;;10.48;68.83;102606.47;4900221;29;20043;-75
2023/04/18 08:52:36;;;;;;;12.80;10.30;;;;;;;10.87;65.95;102611.47;4912125;29;20048;-76
2023/04/18 08:55:02;;;;;;;12.40;9.52;;;;;;;11.03;64.88;102606.47;4903012;29;20076;-75
2023/04/18 08:57:29;;;;;;;11.80;9.02;;;;;;;11.05;62.78;102599.50;4905826;29;20040;-75
2023/04/18 08:59:59;;;;;;;11.43;8.93;;;;;;;10.89;62.78;102603.66;4897642;29;20450;-76
2023/04/18 09:02:42;;;;;;;12.23;9.20;;;;;;;10.60;62.45;102606.66;4899784;29;20058;-76
2023/04/18 09:05:13;;;;;;;11.85;9.98;;;;;;;10.56;65.05;102599.63;4925923;29;20450;-75
2023/04/18 09:07:39;;;;;;;13.32;10.02;;;;;;;10.82;64.90;102602.66;4916068;29;20051;-72
2023/04/18 09:10:06;;;;;;;11.15;9.38;;;;;;;11.06;63.82;102607.41;4914212;29;20039;-72
2023/04/18 09:12:33;;;;;;;13.05;8.77;;;;;;;11.23;61.29;102604.13;4898511;29;20043;-73
2023/04/18 09:15:15;;;;;;;10.90;8.70;;;;;;;11.37;62.33;102594.69;4917363;29;20118;-72
2023/04/18 09:17:45;;;;;;;10.95;9.02;;;;;;;11.49;62.29;102595.69;4915623;29;20036;-72
2023/04/18 09:20:33;;;;;;;9.95;8.20;;;;;;;11.71;61.69;102596.84;4910243;29;20039;-77
2023/04/18 09:23:13;;;;;;;9.43;7.88;;;;;;;11.74;58.74;102597.75;4913960;29;20040;-76
2023/04/18 09:25:46;;;;;;;10.30;7.80;;;;;;;11.49;59.89;102609.69;4911331;29;20039;-76
2023/04/18 09:28:28;;;;;;;13.32;7.70;;;;;;;11.29;59.43;102601.56;4922963;29;20063;-76
2023/04/18 09:31:10;;;;;;;10.55;8.07;;;;;;;11.09;60.17;102606.53;4896039;29;20048;-76
2023/04/18 09:33:37;;;;;;;9.98;8.07;;;;;;;10.80;59.74;102608.72;4909290;29;21905;-72
2023/04/18 09:36:20;;;;;;;9.75;7.38;;;;;;;10.64;61.31;102611.09;4899627;29;20060;-72
2023/04/18 09:38:50;;;;;;;9.75;7.70;;;;;;;10.40;62.75;102614.19;4908010;29;20036;-71
2023/04/18 09:41:21;;;;;;;9.60;7.57;;;;;;;10.32;63.38;102606.16;4907205;29;20044;-72
2023/04/18 09:43:46;;;;;;;;;;;;;;;10.28;62.01;102614.81;4911997;29;20036;-72
2023/04/18 09:46:13;;;;;;;9.52;7.50;;;;;;;10.04;64.50;102600.44;4915766;29;20314;-72
2023/04/18 09:48:42;;;;;;;11.38;7.97;;;;;;;10.01;63.35;102595.16;4897005;29;20044;-72
2023/04/18 09:51:15;;;;;;;10.50;7.57;;;;;;;9.91;63.47;102593.19;4898923;29;20048;-72
2023/04/18 09:53:49;;;;;;;9.50;7.80;;;;;;;9.91;64.23;102608.91;4917657;29;20453;-71
2023/04/18 09:56:24;;;;;;;10.88;7.20;;;;;;;9.94;63.10;102608.09;4915250;29;20044;-78
2023/04/18 09:58:55;;;;;;;8.98;7.10;;;;;;;10.06;64.57;102624.91;4925782;29;20143;-73
2023/04/18 10:01:22;;;;;;;9.55;7.65;;;;;;;10.31;65.34;102612.25;4906577;29;20436;-72
2023/04/18 10:03:49;;;;;;;10.45;7.30;;;;;;;10.34;63.24;102615.00;4916627;29;20433;-72
2023/04/18 10:06:16;;;;;;;9.43;7.00;;;;;;;10.50;63.74;102610.00;4900903;29;20360;-72
2023/04/18 10:08:46;;;;;;;10.27;7.28;;;;;;;10.72;64.12;102612.13;4886222;29;20043;-71
2023/04/18 10:11:12;;;;;;;9.13;7.03;;;;;;;10.64;62.48;102618.09;4893901;29;20054;-72
2023/04/18 10:13:42;;;;;;;7.70;6.25;;;;;;;10.39;61.86;102612.44;4909350;29;20084;-72
2023/04/18 10:16:08;;;;;;;8.73;5.57;;;;;;;10.22;61.14;102615.59;4904001;29;20031;-71
2023/04/18 10:18:35;;;;;;;7.72;5.57;;;;;;;10.17;63.81;102619.91;4898438;29;20042;-71
2023/04/18 10:21:04;;;;;;;10.20;6.55;;;;;;;10.13;62.73;102610.22;4901030;29;20044;-76
2023/04/18 10:23:30;;;;;;;13.48;7.45;;;;;;;10.17;64.59;102608.50;4915608;29;20412;-76
2023/04/18 10:25:56;;;;;;;9.73;6.43;;;;;;;10.15;62.25;102623.34;4913040;29;20147;-77
2023/04/18 10:28:23;;;;;;;8.10;6.53;;;;;;;10.09;62.75;102608.38;4919345;29;20150;-75
2023/04/18 10:30:51;;;;;;;7.82;6.30;;;;;;;10.15;64.24;102605.00;4881813;29;20040;-71
2023/04/18 10:33:24;;;;;;;7.25;6.50;;;;;;;10.19;64.07;102614.69;4901318;29;20044;-71
2023/04/18 10:36:00;;;;;;;9.10;6.93;;;;;;;10.18;63.94;102608.53;4906639;29;20428;-72
2023/04/18 10:38:26;;;;;;;7.30;5.85;;;;;;;10.24;63.47;102613.00;4907887;29;20445;-72
2023/04/18 10:40:52;;;;;;;9.70;7.10;;;;;;;10.24;62.83;102602.53;4893018;29;20071;-72
2023/04/18 10:43:18;;;;;;;7.95;6.80;;;;;;;10.22;64.16;102599.88;4924849;29;20134;-72
2023/04/18 10:45:43;;;;;;;7.72;6.43;;;;;;;10.17;64.22;102601.56;4915553;29;20043;-76
2023/04/18 10:48:28;;;;;;;9.68;7.15;;;;;;;10.13;63.83;102604.06;4928997;29;20039;-71
2023/04/18 10:51:17;;;;;;;8.45;7.10;;;;;;;10.10;64.87;102598.78;4915972;29;20063;-76
2023/04/18 10:54:02;;;;;;;10.75;8.35;;;;;;;10.12;63.95;102607.56;4902998;29;20060;-71
2023/04/18 10:56:28;;;;;;;9.73;7.47;;;;;;;10.18;64.87;102594.56;4896069;29;20511;-71
2023/04/18 10:58:58;;;;;;;13.82;9.05;;;;;;;10.22;64.55;102599.00;4916740;29;20044;-74
2023/04/18 11:01:29;;;;;;;10.50;8.43;;;;;;;10.20;63.58;102595.47;4908554;29;20032;-75
2023/04/18 11:03:55;;;;;;;14.18;8.50;;;;;;;10.18;64.10;102600.69;4904255;29;20028;-75
2023/04/18 11:06:22;;;;;;;12.70;9.10;;;;;;;10.22;64.66;102606.88;4907201;29;20043;-71
2023/04/18 11:08:50;;;;;;;13.60;9.45;;;;;;;10.14;64.10;102595.34;4900347;29;20071;-72
2023/04/18 11:11:16;;;;;;;10.05;8.80;;;;;;;10.05;63.84;102599.56;4901594;29;20103;-71
2023/04/18 11:13:57;;;;;;;11.02;8.93;;;;;;;9.98;64.98;102597.69;4899013;29;20431;-76
2023/04/18 11:16:29;;;;;;;10.40;8.55;;;;;;;9.93;65.23;102599.34;4902047;29;20044;-72
2023/04/18 11:18:54;;;;;;;11.55;8.75;;;;;;;9.89;65.28;102595.78;4907920;29;20039;-76
2023/04/18 11:21:23;;;;;;;9.65;8.02;;;;;;;9.87;65.94;102607.09;4881795;29;20488;-76
2023/04/18 11:23:49;;;;;;;11.40;9.10;;;;;;;9.76;64.72;102609.50;4896880;29;20594;-75
2023/04/18 11:26:16;;;;;;;11.90;8.68;;;;;;;9.71;65.54;102603.28;4912601;29;20040;-76
2023/04/18 11:28:43;;;;;;;10.82;8.80;;;;;;;9.69;67.23;102612.84;4883777;29;20106;-76
2023/04/18 11:31:09;;;;;;;12.50;8.70;;;;;;;9.67;66.25;102602.34;4908306;29;20416;-76
2023/04/18 11:33:34;;;;;;;12.73;9.32;;;;;;;9.71;67.04;102587.56;4915024;29;20044;-75
2023/04/18 11:36:00;;;;;;;13.13;9.02;;;;;;;9.71;67.20;102600.66;4897220;29;20041;-71
2023/04/18 11:38:29;;;;;;;13.05;9.25;;;;;;;9.70;67.32;102599.78;4915654;29;20043;-75
2023/04/18 11:40:55;;;;;;;11.85;9.73;;;;;;;9.68;67.19;102601.50;4896857;29;20182;-76
2023/04/18 11:43:23;;;;;;;12.32;9.23;;;;;;;9.64;67.24;102599.66;4898422;29;20048;-76
2023/04/18 11:45:56;;;;;;;11.48;8.50;;;;;;;9.73;67.86;102598.97;4902391;29;20051;-71
2023/04/18 11:48:22;;;;;;;11.85;9.32;;;;;;;9.77;68.08;102592.94;4913580;29;20115;-76
2023/04/18 11:50:48;;;;;;;13.45;9.70;;;;;;;9.81;67.61;102601.72;4913583;29;20036;-76
2023/04/18 11:53:30;;;;;;;12.02;9.60;;;;;;;9.81;67.47;102607.88;4899810;29;20043;-75
2023/04/18 11:55:55;;;;;;;13.50;9.73;;;;;;;9.85;67.55;102606.16;4920736;29;20040;-76
2023/04/18 11:58:38;;;;;;;13.55;10.48;;;;;;;9.76;67.99;102609.50;4902056;29;20093;-71
2023/04/18 12:01:24;;;;;;;14.05;10.85;;;;;;;9.78;67.93;102606.91;4915587;29;20134;-75
2023/04/18 12:04:07;;;;;;;16.25;11.60;;;;;;;9.78;67.18;102588.56;4909519;29;20039;-71
2023/04/18 12:06:49;;;;;;;13.10;10.43;;;;;;;9.84;68.17;102596.53;4906589;29;20098;-76
2023/04/18 12:09:16;;;;;;;13.13;9.93;;;;;;;9.90;67.54;102596.69;4908203;29;20086;-71
2023/04/18 12:11:41;;;;;;;12.15;9.85;;;;;;;9.92;67.21;102609.81;4900852;29;20047;-77
2023/04/18 12:14:19;;;;;;;14.52;10.57;;;;;;;10.02;67.19;102602.13;4889199;29;20103;-76
2023/04/18 12:16:44;;;;;;;13.68;10.60;;;;;;;10.23;69.46;102596.41;4930574;29;20043;-71